Time;durP1;ratioP1;P1;durP2;ratioP2;P2;SDS_P1;SDS_P2;PMS_P1;PMS_P2;Temp;Humidity;BMP_temperature;BMP_pressure;BME280_temperature;BME280_humidity;BME280_pressure;Samples;Min_cycle;Max_cycle;Signal;HPM_P1;HPM_P2
2023/01/14 00:01:47;;;;;;;13.98;2.85;;;8.40;79.60;;;;;;5133940;27;20035;-75
2023/01/14 00:04:13;;;;;;;15.05;3.15;;;8.50;79.70;;;;;;5116901;27;20043;-74
2023/01/14 00:06:39;;;;;;;11.93;3.13;;;8.50;79.70;;;;;;5117074;27;20042;-74
2023/01/14 00:09:07;;;;;;;16.98;3.08;;;8.40;79.70;;;;;;5134120;27;20035;-74
2023/01/14 00:11:51;;;;;;;15.45;2.67;;;8.40;79.70;;;;;;5134208;27;20031;-73
2023/01/14 00:14:21;;;;;;;13.18;2.63;;;8.50;79.80;;;;;;5116696;27;20043;-77
2023/01/14 00:16:48;;;;;;;10.32;2.70;;;8.50;80.30;;;;;;5134195;27;20035;-77
2023/01/14 00:19:14;;;;;;;14.27;2.47;;;8.40;79.90;;;;;;5133547;27;20050;-77
2023/01/14 00:21:43;;;;;;;13.57;3.15;;;8.40;79.90;;;;;;5117215;27;20043;-77
2023/01/14 00:24:09;;;;;;;16.30;2.70;;;8.50;80.00;;;;;;5116932;27;20046;-77
2023/01/14 00:26:35;;;;;;;9.70;2.00;;;8.40;79.90;;;;;;5145871;27;20486;-78
2023/01/14 00:29:01;;;;;;;9.02;2.13;;;8.40;79.80;;;;;;5108803;27;20073;-77
2023/01/14 00:31:27;;;;;;;16.58;3.38;;;8.50;79.90;;;;;;5116839;27;20055;-78
2023/01/14 00:33:55;;;;;;;14.50;3.50;;;8.40;79.80;;;;;;5133931;27;20042;-77
2023/01/14 00:36:22;;;;;;;12.55;2.67;;;8.50;79.70;;;;;;5134050;27;20067;-78
2023/01/14 00:38:48;;;;;;;13.93;3.10;;;8.40;79.50;;;;;;5134233;27;20043;-78
2023/01/14 00:41:17;;;;;;;12.45;2.47;;;8.40;79.50;;;;;;5117123;27;20069;-74
2023/01/14 00:43:45;;;;;;;11.80;2.47;;;8.40;79.40;;;;;;5116235;27;20115;-74
2023/01/14 00:46:32;;;;;;;13.70;2.72;;;8.40;79.30;;;;;;5150329;27;20042;-74
2023/01/14 00:48:59;;;;;;;15.43;2.95;;;8.40;79.20;;;;;;5132342;27;20047;-74
2023/01/14 00:51:26;;;;;;;16.40;2.90;;;8.40;79.00;;;;;;5133261;27;20039;-74
2023/01/14 00:53:52;;;;;;;12.90;2.65;;;8.40;78.70;;;;;;5095675;27;20044;-74
2023/01/14 00:56:20;;;;;;;11.65;1.98;;;8.40;78.60;;;;;;5115867;27;20181;-74
2023/01/14 00:58:46;;;;;;;11.57;2.58;;;8.40;78.40;;;;;;5133192;27;20522;-74
2023/01/14 01:01:13;;;;;;;13.60;2.97;;;8.40;78.30;;;;;;5133195;27;20046;-74
2023/01/14 01:03:46;;;;;;;14.88;3.53;;;8.40;78.20;;;;;;5132942;27;20043;-74
2023/01/14 01:06:13;;;;;;;15.48;2.70;;;8.40;78.20;;;;;;5132367;27;20039;-74
2023/01/14 01:08:40;;;;;;;12.90;2.80;;;8.30;78.20;;;;;;5115687;27;20077;-73
2023/01/14 01:11:06;;;;;;;13.93;2.55;;;8.30;78.30;;;;;;5098617;27;20087;-74
2023/01/14 01:13:32;;;;;;;13.18;2.90;;;8.30;78.30;;;;;;5132732;27;20542;-74
2023/01/14 01:16:06;;;;;;;10.10;1.95;;;8.30;78.40;;;;;;5115843;27;20039;-74
2023/01/14 01:18:32;;;;;;;17.65;2.83;;;8.30;78.50;;;;;;5132605;27;20118;-74
2023/01/14 01:21:06;;;;;;;15.32;2.97;;;8.30;78.60;;;;;;5098307;27;20142;-74
2023/01/14 01:23:32;;;;;;;;;;;8.30;78.60;;;;;;5133179;27;20043;-75
2023/01/14 01:26:03;;;;;;;9.70;2.40;;;8.30;78.60;;;;;;5115542;27;19971;-75
2023/01/14 01:28:30;;;;;;;16.33;3.13;;;8.10;78.70;;;;;;5132724;27;20047;-74
2023/01/14 01:31:04;;;;;;;14.07;3.80;;;8.30;78.80;;;;;;5132201;27;20051;-74
2023/01/14 01:33:30;;;;;;;;;;;8.30;78.80;;;;;;5133026;27;20045;-75
2023/01/14 01:36:16;;;;;;;20.08;2.25;;;8.30;78.70;;;;;;5115160;27;19915;-74
2023/01/14 01:38:43;;;;;;;12.75;2.70;;;8.30;78.80;;;;;;5132425;27;20390;-74
2023/01/14 01:41:15;;;;;;;11.57;2.78;;;8.30;78.80;;;;;;5132245;27;20066;-74
2023/01/14 01:43:59;;;;;;;11.27;2.72;;;8.30;78.70;;;;;;5115032;28;20114;-74
2023/01/14 01:46:25;;;;;;;12.45;3.08;;;8.30;78.50;;;;;;5132508;27;20564;-74
2023/01/14 01:48:52;;;;;;;18.40;3.42;;;8.30;78.60;;;;;;5115329;27;20125;-74
2023/01/14 01:51:21;;;;;;;14.90;2.55;;;8.30;78.50;;;;;;5132195;27;20176;-73
2023/01/14 01:53:51;;;;;;;13.23;3.05;;;8.30;78.40;;;;;;5132189;28;20065;-74
2023/01/14 01:56:23;;;;;;;14.18;2.80;;;8.40;78.30;;;;;;5131916;27;20031;-74
2023/01/14 01:58:51;;;;;;;18.67;3.03;;;8.40;78.30;;;;;;5128783;27;20039;-74
2023/01/14 02:01:17;;;;;;;12.80;2.60;;;8.30;78.20;;;;;;5105639;28;20049;-74
2023/01/14 02:03:46;;;;;;;22.80;3.90;;;8.30;78.20;;;;;;5132099;28;20093;-75
2023/01/14 02:06:12;;;;;;;17.77;3.33;;;8.40;78.40;;;;;;5131667;27;20035;-75
2023/01/14 02:08:40;;;;;;;19.13;3.88;;;8.40;78.40;;;;;;5131976;28;20497;-74
2023/01/14 02:11:15;;;;;;;16.15;3.13;;;8.30;78.30;;;;;;5112292;28;20088;-75
2023/01/14 02:13:47;;;;;;;;;;;8.40;78.30;;;;;;5131597;27;20525;-74
2023/01/14 02:16:28;;;;;;;15.07;3.33;;;8.30;78.20;;;;;;5131996;27;19915;-74
2023/01/14 02:19:13;;;;;;;19.00;3.25;;;8.30;78.30;;;;;;5132125;27;20122;-75
2023/01/14 02:22:10;;;;;;;14.77;3.58;;;8.30;78.30;;;;;;5132006;27;20047;-74
2023/01/14 02:24:48;;;;;;;15.02;2.88;;;8.30;78.20;;;;;;5131342;28;20153;-74
2023/01/14 02:27:31;;;;;;;10.57;2.72;;;8.40;78.30;;;;;;5114801;28;20047;-74
2023/01/14 02:30:18;;;;;;;13.23;2.83;;;8.30;78.20;;;;;;5114713;28;20035;-74
2023/01/14 02:33:03;;;;;;;20.88;3.65;;;8.30;78.20;;;;;;5131917;28;20039;-74
2023/01/14 02:35:52;;;;;;;13.50;3.55;;;8.30;78.00;;;;;;5129073;28;20075;-74
2023/01/14 02:38:26;;;;;;;18.60;3.45;;;8.30;78.00;;;;;;5114725;28;20440;-74
2023/01/14 02:41:08;;;;;;;16.70;3.70;;;8.30;77.90;;;;;;5132537;27;20436;-74
2023/01/14 02:46:32;;;;;;;15.02;3.13;;;8.30;77.70;;;;;;5135932;27;20066;-74
2023/01/14 02:49:00;;;;;;;13.23;3.20;;;8.30;77.70;;;;;;5135734;27;20062;-74
2023/01/14 02:51:26;;;;;;;14.25;2.95;;;8.20;77.60;;;;;;5135695;27;20070;-74
2023/01/14 02:53:52;;;;;;;15.82;3.13;;;8.20;77.60;;;;;;5134969;27;20073;-74
2023/01/14 02:56:18;;;;;;;13.55;2.40;;;8.20;77.70;;;;;;5135558;27;20068;-74
2023/01/14 02:59:05;;;;;;;12.45;2.67;;;8.20;77.80;;;;;;5135816;27;20043;-74
2023/01/14 03:01:40;;;;;;;14.85;3.28;;;8.20;77.80;;;;;;5135628;27;20051;-74
2023/01/14 03:04:21;;;;;;;11.50;2.92;;;8.20;77.80;;;;;;5143235;27;20074;-74
2023/01/14 03:07:01;;;;;;;19.67;3.40;;;8.20;77.80;;;;;;5114797;28;20054;-74
2023/01/14 03:09:38;;;;;;;22.60;3.72;;;8.10;77.70;;;;;;5100020;27;20039;-74
2023/01/14 03:12:08;;;;;;;13.27;3.10;;;8.10;77.60;;;;;;5135467;27;20062;-74
2023/01/14 03:14:50;;;;;;;15.23;2.80;;;8.00;77.70;;;;;;5117589;27;20498;-74
2023/01/14 03:17:26;;;;;;;16.73;3.28;;;8.00;77.80;;;;;;5135220;27;20145;-74
2023/01/14 03:20:11;;;;;;;11.77;2.10;;;8.00;77.80;;;;;;5117969;27;20064;-74
2023/01/14 03:22:40;;;;;;;13.63;3.28;;;8.00;77.90;;;;;;5135001;27;20482;-74
2023/01/14 03:25:08;;;;;;;13.07;3.33;;;8.00;78.10;;;;;;5117464;27;20114;-74
2023/01/14 03:27:36;;;;;;;15.70;2.53;;;7.90;78.10;;;;;;5134266;27;20091;-74
2023/01/14 03:30:12;;;;;;;13.00;2.40;;;7.90;78.20;;;;;;5151997;27;20039;-74
2023/01/14 03:32:42;;;;;;;11.05;2.83;;;7.90;78.30;;;;;;5134542;27;20600;-74
2023/01/14 03:35:18;;;;;;;14.18;2.67;;;7.80;78.40;;;;;;5134664;27;20070;-74
2023/01/14 03:38:20;;;;;;;15.73;2.97;;;7.80;78.40;;;;;;5151922;27;20046;-74
2023/01/14 03:40:49;;;;;;;14.73;2.67;;;7.80;78.30;;;;;;5124183;27;20054;-74
2023/01/14 03:43:21;;;;;;;13.00;2.92;;;7.80;78.40;;;;;;5134245;27;20118;-74
2023/01/14 03:45:48;;;;;;;12.23;3.08;;;7.70;78.30;;;;;;5113995;28;20044;-74
2023/01/14 03:48:14;;;;;;;16.60;2.88;;;7.70;78.30;;;;;;5122580;27;20180;-74
2023/01/14 03:51:12;;;;;;;11.82;2.88;;;7.70;78.30;;;;;;5117425;27;20160;-75
2023/01/14 03:53:42;;;;;;;12.57;2.10;;;7.70;78.20;;;;;;5132709;27;20039;-75
2023/01/14 03:56:36;;;;;;;13.88;3.00;;;7.60;78.20;;;;;;5134185;27;20040;-75
2023/01/14 03:59:07;;;;;;;16.65;3.08;;;7.60;78.20;;;;;;5117237;27;20054;-75
2023/01/14 04:01:44;;;;;;;14.70;2.75;;;7.60;78.20;;;;;;5134503;27;20130;-75
2023/01/14 04:04:11;;;;;;;11.63;3.00;;;7.60;78.20;;;;;;5133607;27;20039;-75
2023/01/14 04:06:38;;;;;;;11.50;3.47;;;7.60;78.30;;;;;;5134423;27;20633;-75
2023/01/14 04:09:08;;;;;;;15.85;2.85;;;7.50;78.30;;;;;;5134112;27;20043;-75
2023/01/14 04:11:35;;;;;;;16.40;3.50;;;7.50;78.20;;;;;;5133674;27;20036;-75
2023/01/14 04:16:45;;;;;;;14.32;3.10;;;7.40;78.30;;;;;;5133977;27;20126;-75
2023/01/14 04:19:11;;;;;;;17.33;3.17;;;7.40;78.30;;;;;;5116817;27;20531;-75
2023/01/14 04:21:36;;;;;;;15.00;2.60;;;7.40;78.40;;;;;;5134031;27;20039;-78
2023/01/14 04:24:02;;;;;;;18.05;3.30;;;7.40;78.50;;;;;;5134053;27;20031;-74
2023/01/14 04:26:28;;;;;;;13.90;3.40;;;7.40;78.60;;;;;;5133736;27;20116;-74
2023/01/14 04:28:54;;;;;;;17.77;3.10;;;7.40;78.60;;;;;;5116325;27;20039;-74
2023/01/14 04:31:20;;;;;;;10.38;2.72;;;7.30;78.60;;;;;;5133135;27;20070;-74
2023/01/14 04:33:46;;;;;;;14.45;2.70;;;7.30;78.70;;;;;;5133446;27;20398;-74
2023/01/14 04:36:12;;;;;;;14.23;2.72;;;7.30;78.80;;;;;;5133922;27;20038;-75
2023/01/14 04:38:39;;;;;;;11.93;3.03;;;7.30;78.90;;;;;;5133833;27;20138;-75
2023/01/14 04:41:04;;;;;;;14.40;3.50;;;7.20;78.90;;;;;;5133534;27;20100;-75
2023/01/14 04:43:30;;;;;;;13.65;2.63;;;7.20;79.00;;;;;;5133217;27;20035;-74
2023/01/14 04:45:56;;;;;;;14.98;3.13;;;7.20;79.00;;;;;;5096072;28;20529;-74
2023/01/14 04:48:24;;;;;;;15.82;2.78;;;7.20;79.20;;;;;;5113062;28;20398;-75
2023/01/14 04:50:50;;;;;;;12.13;2.78;;;7.20;79.40;;;;;;5115497;27;20039;-77
2023/01/14 04:53:18;;;;;;;15.07;3.03;;;7.20;79.50;;;;;;5133589;27;20031;-74
2023/01/14 04:55:45;;;;;;;15.45;2.83;;;7.20;79.70;;;;;;5115940;27;20070;-74
2023/01/14 04:58:13;;;;;;;13.15;2.65;;;7.10;79.80;;;;;;5115990;27;20482;-73
2023/01/14 05:00:40;;;;;;;20.65;3.88;;;7.10;79.90;;;;;;5132681;27;20035;-73
2023/01/14 05:03:08;;;;;;;15.75;3.03;;;7.10;80.00;;;;;;5132525;27;20043;-74
2023/01/14 05:05:34;;;;;;;13.38;3.10;;;7.20;80.20;;;;;;5132958;27;20043;-74
2023/01/14 05:08:00;;;;;;;12.63;3.03;;;7.10;80.20;;;;;;5132958;27;20039;-74
2023/01/14 05:10:26;;;;;;;18.75;3.45;;;7.10;80.30;;;;;;5115797;27;20091;-75
2023/01/14 05:12:59;;;;;;;11.55;3.72;;;7.10;80.40;;;;;;5115635;27;20034;-77
2023/01/14 05:15:30;;;;;;;18.15;4.03;;;7.10;80.50;;;;;;5133161;27;20168;-77
2023/01/14 05:17:56;;;;;;;16.73;3.55;;;7.00;80.50;;;;;;5133074;27;20046;-78
2023/01/14 05:20:26;;;;;;;18.02;4.28;;;7.00;80.60;;;;;;5116142;27;20391;-78
2023/01/14 05:22:57;;;;;;;16.27;2.92;;;7.10;80.80;;;;;;5133269;27;20401;-77
2023/01/14 05:25:23;;;;;;;17.95;3.30;;;7.00;80.80;;;;;;5115784;27;20047;-78
2023/01/14 05:27:48;;;;;;;21.00;3.88;;;7.00;80.90;;;;;;5132536;27;20053;-77
2023/01/14 05:30:15;;;;;;;12.25;3.53;;;7.00;80.90;;;;;;5132878;27;20038;-75
2023/01/14 05:32:40;;;;;;;25.77;4.40;;;7.00;81.00;;;;;;5132154;27;20166;-75
2023/01/14 05:35:07;;;;;;;18.45;4.20;;;7.00;81.00;;;;;;5132681;27;20476;-76
2023/01/14 05:37:34;;;;;;;20.52;3.30;;;7.00;81.00;;;;;;5133066;27;20035;-75
2023/01/14 05:40:00;;;;;;;19.15;3.20;;;7.00;81.00;;;;;;5132444;27;20035;-74
2023/01/14 05:47:56;;;;;;;19.77;3.92;;;7.00;81.00;;;;;;5132545;27;20298;-74
2023/01/14 05:50:21;;;;;;;19.45;3.80;;;6.90;81.10;;;;;;5132139;27;20035;-74
2023/01/14 05:52:47;;;;;;;23.25;4.30;;;6.90;81.10;;;;;;5132179;27;20031;-74
2023/01/14 05:55:13;;;;;;;26.13;5.15;;;6.90;81.20;;;;;;5132069;28;20047;-74
2023/01/14 05:57:39;;;;;;;22.33;3.90;;;6.90;81.20;;;;;;5097941;28;20119;-74
2023/01/14 06:00:05;;;;;;;23.75;5.40;;;6.90;81.20;;;;;;5115608;28;20122;-77
2023/01/14 06:08:02;;;;;;;21.15;3.92;;;6.90;81.30;;;;;;5132692;28;20057;-77
2023/01/14 06:10:28;;;;;;;20.85;4.85;;;6.90;81.40;;;;;;5115723;28;20398;-77
2023/01/14 06:12:57;;;;;;;22.10;6.00;;;6.90;81.50;;;;;;5115424;28;20389;-77
2023/01/14 06:15:36;;;;;;;23.25;5.03;;;6.90;81.50;;;;;;5132580;27;20054;-77
2023/01/14 06:18:09;;;;;;;27.27;6.13;;;6.90;81.50;;;;;;5119645;27;20490;-77
2023/01/14 06:20:39;;;;;;;22.27;5.70;;;6.90;81.50;;;;;;5119614;27;20054;-77
2023/01/14 06:23:05;;;;;;;20.05;5.75;;;6.90;81.50;;;;;;5138203;27;20874;-77
2023/01/14 06:25:32;;;;;;;26.45;5.63;;;6.90;81.60;;;;;;5119690;27;20046;-77
2023/01/14 06:28:02;;;;;;;21.58;5.25;;;6.90;81.60;;;;;;5136370;27;20043;-77
2023/01/14 06:30:28;;;;;;;22.08;5.78;;;6.90;81.60;;;;;;5119242;27;20046;-77
2023/01/14 06:32:54;;;;;;;21.08;5.25;;;6.90;81.70;;;;;;5136340;27;20047;-77
2023/01/14 06:35:21;;;;;;;29.38;5.78;;;6.90;81.70;;;;;;5135925;27;20039;-77
2023/01/14 06:37:47;;;;;;;25.05;5.75;;;6.90;81.70;;;;;;5136695;27;20089;-77
2023/01/14 06:40:13;;;;;;;25.75;5.65;;;6.90;81.80;;;;;;5136314;27;20425;-77
2023/01/14 06:42:40;;;;;;;25.50;5.95;;;6.90;81.80;;;;;;5119282;27;20073;-78
2023/01/14 06:45:07;;;;;;;27.63;6.07;;;6.90;81.90;;;;;;5136219;27;20071;-77
2023/01/14 06:47:34;;;;;;;18.58;5.03;;;6.90;81.90;;;;;;5135832;27;20035;-77
2023/01/14 06:49:59;;;;;;;27.40;5.70;;;6.90;81.90;;;;;;5136146;27;20046;-77
2023/01/14 06:52:25;;;;;;;27.00;6.68;;;6.90;81.90;;;;;;5136378;27;20129;-77
2023/01/14 06:54:55;;;;;;;24.75;4.90;;;6.90;82.00;;;;;;5135810;27;20069;-78
2023/01/14 06:57:21;;;;;;;24.92;4.53;;;6.90;82.10;;;;;;5135876;27;20050;-77
2023/01/14 06:59:47;;;;;;;25.27;5.13;;;6.90;82.10;;;;;;5135887;27;20031;-77
2023/01/14 07:02:13;;;;;;;24.65;5.18;;;6.90;82.30;;;;;;5118724;27;20088;-77
2023/01/14 07:04:39;;;;;;;28.80;5.28;;;6.90;82.30;;;;;;5098106;28;20046;-77
2023/01/14 07:07:05;;;;;;;27.80;5.38;;;6.90;82.40;;;;;;5115567;27;20069;-77
2023/01/14 07:09:31;;;;;;;25.63;5.90;;;6.90;82.40;;;;;;5115183;28;20132;-77
2023/01/14 07:11:57;;;;;;;24.15;5.53;;;7.00;82.50;;;;;;5136081;27;20046;-78
2023/01/14 07:14:23;;;;;;;17.60;4.88;;;6.90;82.50;;;;;;5127354;27;20039;-78
2023/01/14 07:16:49;;;;;;;19.17;5.32;;;6.90;82.60;;;;;;5135508;27;20035;-77
2023/01/14 07:19:15;;;;;;;25.73;5.53;;;6.90;82.60;;;;;;5135895;27;20078;-77
2023/01/14 07:21:40;;;;;;;22.83;5.45;;;7.00;82.70;;;;;;5135310;27;20501;-77
2023/01/14 07:24:06;;;;;;;27.85;5.32;;;7.00;82.70;;;;;;5135447;27;20116;-77
2023/01/14 07:26:32;;;;;;;26.30;6.07;;;7.00;82.80;;;;;;5118280;27;20382;-77
2023/01/14 07:28:58;;;;;;;29.08;5.50;;;7.00;82.80;;;;;;5118109;27;20066;-77
2023/01/14 07:31:24;;;;;;;25.35;5.13;;;7.00;82.80;;;;;;5117781;27;20047;-77
2023/01/14 07:33:49;;;;;;;26.77;6.43;;;7.00;82.80;;;;;;5110560;28;20422;-77
2023/01/14 07:36:15;;;;;;;25.10;5.75;;;7.00;82.90;;;;;;5116930;27;20035;-77
2023/01/14 07:38:41;;;;;;;20.38;4.93;;;7.00;82.90;;;;;;5134860;27;20039;-77
2023/01/14 07:41:17;;;;;;;24.80;5.63;;;7.00;82.90;;;;;;5117972;27;20065;-77
2023/01/14 07:43:47;;;;;;;22.23;5.85;;;7.00;83.00;;;;;;5135047;27;20051;-77
2023/01/14 07:46:13;;;;;;;25.63;5.05;;;7.10;83.00;;;;;;5118093;27;20069;-77
2023/01/14 07:48:40;;;;;;;24.88;5.57;;;7.00;83.00;;;;;;5117483;27;20038;-74
2023/01/14 07:51:08;;;;;;;26.45;5.22;;;7.00;83.00;;;;;;5134349;27;20110;-74
2023/01/14 07:53:35;;;;;;;18.15;5.18;;;7.10;83.10;;;;;;5134129;27;20476;-74
2023/01/14 07:56:02;;;;;;;24.70;5.03;;;7.00;83.00;;;;;;5134571;27;20121;-74
2023/01/14 07:58:28;;;;;;;24.55;4.93;;;7.10;83.20;;;;;;5151560;27;20046;-74
2023/01/14 08:00:53;;;;;;;22.70;4.68;;;7.10;83.20;;;;;;5116904;27;20482;-74
2023/01/14 08:03:20;;;;;;;20.85;5.25;;;7.10;83.30;;;;;;5099958;27;20031;-74
2023/01/14 08:05:46;;;;;;;24.70;4.75;;;7.10;83.30;;;;;;5134223;27;20080;-74
2023/01/14 08:08:12;;;;;;;28.27;5.53;;;7.10;83.40;;;;;;5134262;27;20082;-74
2023/01/14 08:10:38;;;;;;;24.48;5.85;;;7.10;83.50;;;;;;5134192;27;20034;-74
2023/01/14 08:13:05;;;;;;;24.38;4.15;;;7.10;83.50;;;;;;5134285;27;20382;-74
2023/01/14 08:15:30;;;;;;;28.10;5.15;;;7.10;83.50;;;;;;5134127;27;20390;-74
2023/01/14 08:17:56;;;;;;;24.30;4.70;;;7.10;83.60;;;;;;5134091;27;20073;-74
2023/01/14 08:20:22;;;;;;;12.70;3.63;;;7.10;83.60;;;;;;5116769;27;20099;-74
2023/01/14 08:22:57;;;;;;;18.40;5.30;;;7.10;83.70;;;;;;5133809;27;20047;-74
2023/01/14 08:25:23;;;;;;;19.30;3.80;;;7.10;83.80;;;;;;5133608;27;20493;-74
2023/01/14 08:27:48;;;;;;;19.20;4.28;;;7.10;83.90;;;;;;5133743;27;20045;-74
2023/01/14 08:30:14;;;;;;;18.05;4.07;;;7.10;84.00;;;;;;5116731;27;20095;-75
2023/01/14 08:32:40;;;;;;;24.00;4.38;;;7.00;84.00;;;;;;5116356;27;20368;-74
2023/01/14 08:35:06;;;;;;;21.17;4.07;;;7.00;84.00;;;;;;5147192;27;20043;-78
2023/01/14 08:37:32;;;;;;;20.58;4.15;;;7.10;84.20;;;;;;5116752;27;20035;-77
2023/01/14 08:39:58;;;;;;;20.95;4.18;;;7.10;84.30;;;;;;5133344;27;20564;-77
2023/01/14 08:42:23;;;;;;;18.73;3.80;;;7.10;84.40;;;;;;5116913;27;20196;-77
2023/01/14 08:44:49;;;;;;;18.50;4.07;;;7.00;84.40;;;;;;5133364;27;20126;-77
2023/01/14 08:47:15;;;;;;;21.08;4.05;;;7.00;84.50;;;;;;5134133;27;20050;-77
2023/01/14 08:49:40;;;;;;;20.35;3.78;;;7.00;84.60;;;;;;5116444;27;20470;-77
2023/01/14 08:52:07;;;;;;;20.42;3.80;;;7.10;85.10;;;;;;5133975;27;20081;-77
2023/01/14 08:54:33;;;;;;;23.45;4.20;;;7.00;84.80;;;;;;5133615;27;20062;-77
2023/01/14 08:56:59;;;;;;;17.90;4.40;;;7.10;84.80;;;;;;5133653;27;20054;-77
2023/01/14 08:59:25;;;;;;;16.90;4.28;;;7.00;84.80;;;;;;5133795;27;20043;-77
2023/01/14 09:01:51;;;;;;;18.92;3.00;;;7.00;84.80;;;;;;5133785;27;20045;-77
2023/01/14 09:04:17;;;;;;;15.60;4.07;;;7.10;85.00;;;;;;5134119;27;20035;-78
2023/01/14 09:17:40;;;;;;;19.77;4.05;;;7.10;85.30;;;;;;5133292;27;20083;-78
2023/01/14 09:20:13;;;;;;;17.35;3.45;;;7.00;85.20;;;;;;5115995;27;20110;-78
2023/01/14 09:22:40;;;;;;;19.85;4.68;;;7.00;85.40;;;;;;5133015;27;20043;-78
2023/01/14 09:25:06;;;;;;;14.30;2.95;;;7.00;85.40;;;;;;5133230;27;20194;-77
2023/01/14 09:27:32;;;;;;;16.75;3.42;;;7.00;85.50;;;;;;5116178;27;20050;-78
2023/01/14 09:29:58;;;;;;;16.55;3.28;;;7.00;85.60;;;;;;5116394;27;20039;-78
2023/01/14 09:32:24;;;;;;;14.38;3.72;;;7.10;85.70;;;;;;5132923;27;20058;-78
2023/01/14 09:34:52;;;;;;;13.68;3.38;;;7.10;85.90;;;;;;5133033;27;20039;-78
2023/01/14 09:37:23;;;;;;;12.88;2.88;;;7.10;85.90;;;;;;5133012;27;20104;-78
2023/01/14 09:39:50;;;;;;;11.70;2.85;;;7.10;86.00;;;;;;5115751;27;20071;-78
2023/01/14 09:42:29;;;;;;;14.45;3.20;;;7.10;86.10;;;;;;5133159;27;20039;-79
2023/01/14 09:45:00;;;;;;;8.52;2.75;;;7.10;86.30;;;;;;5132983;27;20489;-79
2023/01/14 09:47:27;;;;;;;15.65;2.85;;;7.20;86.50;;;;;;5133699;27;20035;-79
2023/01/14 09:49:53;;;;;;;14.57;2.50;;;7.20;86.40;;;;;;5116672;27;20043;-79
2023/01/14 09:52:43;;;;;;;9.95;2.65;;;7.10;86.40;;;;;;5099451;27;20039;-79
2023/01/14 09:55:29;;;;;;;14.15;3.10;;;7.20;86.70;;;;;;5115869;28;20039;-79
2023/01/14 09:58:01;;;;;;;11.90;2.60;;;7.20;86.80;;;;;;5133592;28;20067;-79
2023/01/14 10:00:30;;;;;;;12.77;2.97;;;7.20;86.90;;;;;;5133144;28;20114;-80
2023/01/14 10:03:24;;;;;;;10.18;2.40;;;7.20;86.90;;;;;;5133459;28;20042;-80
2023/01/14 10:06:03;;;;;;;7.30;2.20;;;7.30;87.20;;;;;;5116761;28;20031;-80
2023/01/14 10:08:37;;;;;;;8.60;2.45;;;7.30;87.20;;;;;;5133170;28;20405;-81
2023/01/14 10:11:06;;;;;;;10.55;2.58;;;7.30;87.20;;;;;;5112374;28;20046;-81
2023/01/14 10:13:46;;;;;;;14.52;3.15;;;7.40;87.20;;;;;;5129479;28;20040;-81
2023/01/14 10:16:27;;;;;;;4.90;1.88;;;7.30;87.30;;;;;;5095946;28;20032;-81
2023/01/14 10:19:05;;;;;;;6.68;2.70;;;7.40;87.50;;;;;;5117683;28;20529;-81
2023/01/14 10:21:43;;;;;;;7.07;2.38;;;7.40;87.60;;;;;;5115401;28;20047;-81
2023/01/14 10:24:20;;;;;;;8.65;2.35;;;7.40;87.70;;;;;;5132306;27;20039;-81
2023/01/14 10:26:48;;;;;;;7.85;2.30;;;7.40;87.70;;;;;;5132133;28;20040;-81
2023/01/14 10:29:19;;;;;;;6.70;1.90;;;7.70;87.90;;;;;;5131668;27;20062;-76
2023/01/14 10:31:51;;;;;;;8.25;2.25;;;7.50;87.80;;;;;;5131635;28;20118;-76
2023/01/14 10:34:28;;;;;;;6.32;1.85;;;7.50;87.80;;;;;;5131542;28;20067;-77
2023/01/14 10:36:54;;;;;;;5.20;1.83;;;7.60;88.00;;;;;;5114288;28;20039;-76
2023/01/14 10:39:20;;;;;;;5.78;1.92;;;7.60;88.00;;;;;;5131461;28;20390;-77
2023/01/14 10:41:48;;;;;;;11.48;2.05;;;7.60;88.00;;;;;;5131745;27;20046;-77
2023/01/14 10:44:19;;;;;;;5.75;2.33;;;7.60;88.00;;;;;;5115023;28;20050;-82
2023/01/14 10:46:46;;;;;;;6.85;1.70;;;7.60;88.10;;;;;;5115151;28;20047;-82
2023/01/14 10:49:18;;;;;;;5.30;1.88;;;7.70;88.10;;;;;;5132326;28;20043;-82
2023/01/14 10:51:49;;;;;;;6.72;2.00;;;7.70;88.10;;;;;;5132491;27;20066;-82
2023/01/14 10:54:16;;;;;;;6.95;1.83;;;7.70;88.10;;;;;;5132707;28;20032;-81
2023/01/14 10:57:14;;;;;;;5.90;2.13;;;7.70;88.10;;;;;;5115584;28;20070;-81
2023/01/14 10:59:49;;;;;;;7.28;2.25;;;7.80;88.20;;;;;;5105212;28;20139;-82
2023/01/14 11:02:47;;;;;;;5.97;1.65;;;7.80;88.10;;;;;;5113338;28;20425;-80
2023/01/14 11:05:28;;;;;;;6.15;1.92;;;7.90;88.10;;;;;;5115390;28;20055;-81
2023/01/14 11:07:56;;;;;;;6.18;2.03;;;7.90;88.10;;;;;;5116694;27;20051;-82
2023/01/14 11:10:26;;;;;;;3.65;1.50;;;7.90;88.10;;;;;;5136278;27;20421;-82
2023/01/14 11:12:52;;;;;;;6.53;1.90;;;7.90;88.10;;;;;;5136270;27;20085;-82
2023/01/14 11:15:38;;;;;;;6.30;1.80;;;7.90;88.10;;;;;;5118602;27;20035;-82
2023/01/14 11:18:19;;;;;;;6.00;1.83;;;7.90;88.10;;;;;;5153017;27;20039;-81
2023/01/14 11:21:07;;;;;;;6.78;1.80;;;7.90;88.10;;;;;;5135692;27;20047;-82
2023/01/14 11:23:38;;;;;;;7.90;2.13;;;7.90;88.10;;;;;;5135194;27;20159;-76
2023/01/14 11:26:08;;;;;;;6.72;1.67;;;8.00;88.50;;;;;;5118254;27;20043;-77
2023/01/14 11:28:43;;;;;;;8.93;2.13;;;8.00;88.20;;;;;;5117604;27;20035;-77
2023/01/14 11:31:14;;;;;;;5.93;2.33;;;8.00;88.10;;;;;;5117840;27;20047;-77
2023/01/14 11:33:50;;;;;;;5.22;1.58;;;8.00;88.10;;;;;;5134790;27;20039;-78
2023/01/14 11:36:24;;;;;;;5.70;1.80;;;8.00;88.20;;;;;;5134451;27;20035;-78
2023/01/14 11:38:51;;;;;;;5.20;1.63;;;8.10;88.30;;;;;;5097588;28;20058;-79
2023/01/14 11:41:32;;;;;;;5.82;1.83;;;8.00;88.20;;;;;;5119598;27;20704;-79
2023/01/14 11:44:22;;;;;;;8.90;1.77;;;8.10;88.30;;;;;;5127686;27;20037;-77
2023/01/14 11:47:14;;;;;;;5.85;1.63;;;8.10;88.30;;;;;;5129518;27;20039;-79
2023/01/14 11:49:40;;;;;;;6.20;1.48;;;8.10;88.40;;;;;;5144088;27;20046;-79
2023/01/14 11:52:17;;;;;;;5.40;1.52;;;8.10;88.30;;;;;;5125419;27;20043;-79
2023/01/14 11:54:44;;;;;;;3.92;1.88;;;8.10;88.50;;;;;;5128529;27;20035;-80
2023/01/14 11:57:19;;;;;;;5.15;1.42;;;8.10;88.40;;;;;;5111590;27;20034;-80
2023/01/14 11:59:46;;;;;;;7.25;1.50;;;8.20;88.60;;;;;;5126179;27;20046;-80
2023/01/14 12:02:20;;;;;;;5.50;1.40;;;8.20;88.60;;;;;;5111928;27;20035;-81
2023/01/14 12:04:51;;;;;;;4.75;1.30;;;8.20;88.70;;;;;;5143410;27;20039;-81
2023/01/14 12:07:24;;;;;;;5.15;1.42;;;8.20;88.60;;;;;;5143878;27;20524;-82
2023/01/14 12:10:06;;;;;;;2.97;1.30;;;8.30;88.70;;;;;;5129710;27;20038;-82
2023/01/14 12:18:49;;;;;;;2.45;1.10;;;8.40;89.00;;;;;;5144136;27;20038;-82
2023/01/14 12:21:27;;;;;;;5.25;1.60;;;8.40;89.00;;;;;;5126386;27;20043;-84
2023/01/14 12:24:02;;;;;;;2.63;1.10;;;8.40;88.90;;;;;;5127437;27;20133;-83
2023/01/14 12:26:38;;;;;;;3.83;1.50;;;8.40;89.00;;;;;;5123037;27;20081;-83
2023/01/14 12:29:10;;;;;;;3.65;1.20;;;8.50;89.00;;;;;;5128214;27;20478;-83
2023/01/14 12:31:45;;;;;;;5.05;1.50;;;8.50;89.10;;;;;;5144023;27;20051;-83
2023/01/14 12:34:43;;;;;;;3.28;1.25;;;8.50;89.10;;;;;;5122466;27;20643;-82
2023/01/14 12:37:31;;;;;;;3.17;1.20;;;8.50;89.20;;;;;;5110713;27;20046;-82
2023/01/14 12:45:55;;;;;;;3.13;1.10;;;8.70;89.40;;;;;;5144809;27;20112;-82
2023/01/14 12:48:25;;;;;;;3.85;1.27;;;8.60;89.40;;;;;;5125323;27;20119;-84
2023/01/14 12:51:02;;;;;;;2.15;0.75;;;8.70;89.50;;;;;;5109833;27;20038;-83
2023/01/14 12:53:52;;;;;;;5.75;1.52;;;8.70;89.50;;;;;;5139032;27;20042;-83
2023/01/14 12:56:18;;;;;;;2.55;0.82;;;8.80;89.60;;;;;;5105220;27;20604;-84
2023/01/14 12:58:57;;;;;;;2.72;0.90;;;8.80;89.60;;;;;;5121651;27;20049;-83
2023/01/14 13:01:26;;;;;;;2.85;0.70;;;8.80;89.70;;;;;;5139347;27;20038;-83
2023/01/14 13:04:13;;;;;;;4.35;0.82;;;8.80;89.80;;;;;;5139345;27;20067;-83
2023/01/14 13:06:41;;;;;;;1.80;0.70;;;8.90;89.90;;;;;;5138495;27;20038;-83
2023/01/14 13:09:26;;;;;;;3.53;1.20;;;8.90;90.00;;;;;;5121216;27;20058;-83
2023/01/14 13:11:54;;;;;;;1.55;0.60;;;8.90;90.00;;;;;;5121034;27;20039;-83
2023/01/14 13:14:34;;;;;;;1.42;0.70;;;9.00;90.00;;;;;;5137966;27;20601;-84
2023/01/14 13:17:18;;;;;;;2.80;0.73;;;9.00;90.00;;;;;;5119293;27;20027;-84
2023/01/14 13:19:52;;;;;;;2.28;0.60;;;9.10;90.10;;;;;;5119966;27;20031;-84
2023/01/14 13:22:43;;;;;;;2.45;0.70;;;9.10;90.10;;;;;;5120770;27;20047;-83
2023/01/14 13:25:34;;;;;;;2.30;0.55;;;9.10;90.10;;;;;;5143912;27;20110;-83
2023/01/14 13:28:11;;;;;;;1.95;0.80;;;9.20;90.20;;;;;;5124271;27;20070;-82
2023/01/14 13:30:53;;;;;;;1.65;0.70;;;9.20;90.20;;;;;;5123770;27;20058;-82
2023/01/14 13:33:29;;;;;;;2.15;1.00;;;9.20;90.20;;;;;;5140111;27;20038;-88
2023/01/14 13:36:10;;;;;;;2.20;0.80;;;9.20;90.20;;;;;;5127964;27;20039;-91
2023/01/14 13:38:42;;;;;;;2.25;0.75;;;9.30;90.20;;;;;;5135942;27;20042;-93
2023/01/14 13:41:11;;;;;;;3.83;0.80;;;9.30;90.20;;;;;;5128053;27;20035;-92
2023/01/14 13:44:06;;;;;;;2.95;0.90;;;9.30;90.20;;;;;;5127431;27;20091;-88
2023/01/14 13:46:34;;;;;;;1.90;0.73;;;9.40;90.30;;;;;;5123100;27;20038;-89
2023/01/14 13:49:07;;;;;;;1.77;0.85;;;9.20;90.20;;;;;;5126584;27;20497;-89
2023/01/14 13:51:42;;;;;;;2.22;1.00;;;9.50;90.30;;;;;;5111197;27;20508;-89